sensor_id;sensor_type;location;lat;lon;timestamp;temperature;humidity
64652;HTU21D;51062;45.120;37.660;2023-11-19T00:02:20;8.12;91.35
64652;HTU21D;51062;45.120;37.660;2023-11-19T00:04:47;8.11;91.32
64652;HTU21D;51062;45.120;37.660;2023-11-19T00:07:13;8.08;91.25
64652;HTU21D;51062;45.120;37.660;2023-11-19T00:09:39;8.05;91.05
64652;HTU21D;51062;45.120;37.660;2023-11-19T00:12:06;8.00;90.76
64652;HTU21D;51062;45.120;37.660;2023-11-19T00:14:35;7.92;90.60
64652;HTU21D;51062;45.120;37.660;2023-11-19T00:17:01;7.87;90.55
64652;HTU21D;51062;45.120;37.660;2023-11-19T00:19:27;7.84;90.63
64652;HTU21D;51062;45.120;37.660;2023-11-19T00:21:53;7.81;90.69
64652;HTU21D;51062;45.120;37.660;2023-11-19T00:24:19;7.78;90.67
64652;HTU21D;51062;45.120;37.660;2023-11-19T00:26:46;7.76;90.68
64652;HTU21D;51062;45.120;37.660;2023-11-19T00:29:12;7.76;90.65
64652;HTU21D;51062;45.120;37.660;2023-11-19T00:31:39;7.75;90.62
64652;HTU21D;51062;45.120;37.660;2023-11-19T00:34:05;7.75;90.64
64652;HTU21D;51062;45.120;37.660;2023-11-19T00:36:31;7.74;90.67
64652;HTU21D;51062;45.120;37.660;2023-11-19T00:38:57;7.74;90.68
64652;HTU21D;51062;45.120;37.660;2023-11-19T00:41:23;7.72;90.68
64652;HTU21D;51062;45.120;37.660;2023-11-19T00:43:51;7.72;90.63
64652;HTU21D;51062;45.120;37.660;2023-11-19T00:46:17;7.73;90.61
64652;HTU21D;51062;45.120;37.660;2023-11-19T00:48:43;7.72;90.59
64652;HTU21D;51062;45.120;37.660;2023-11-19T00:51:11;7.72;90.59
64652;HTU21D;51062;45.120;37.660;2023-11-19T00:53:37;7.72;90.60
64652;HTU21D;51062;45.120;37.660;2023-11-19T00:56:03;7.73;90.63
64652;HTU21D;51062;45.120;37.660;2023-11-19T00:58:29;7.75;90.62
64652;HTU21D;51062;45.120;37.660;2023-11-19T01:00:55;7.75;90.63
64652;HTU21D;51062;45.120;37.660;2023-11-19T01:03:22;7.79;90.66
64652;HTU21D;51062;45.120;37.660;2023-11-19T01:05:48;7.81;90.63
64652;HTU21D;51062;45.120;37.660;2023-11-19T01:08:14;7.82;90.57
64652;HTU21D;51062;45.120;37.660;2023-11-19T01:10:41;7.83;90.52
64652;HTU21D;51062;45.120;37.660;2023-11-19T01:13:07;7.83;90.52
64652;HTU21D;51062;45.120;37.660;2023-11-19T01:15:33;7.82;90.54
64652;HTU21D;51062;45.120;37.660;2023-11-19T01:17:59;7.81;90.57
64652;HTU21D;51062;45.120;37.660;2023-11-19T01:20:25;7.79;90.57
64652;HTU21D;51062;45.120;37.660;2023-11-19T01:22:52;7.77;90.55
64652;HTU21D;51062;45.120;37.660;2023-11-19T01:25:17;7.77;90.57
64652;HTU21D;51062;45.120;37.660;2023-11-19T01:27:44;7.76;90.57
64652;HTU21D;51062;45.120;37.660;2023-11-19T01:30:10;7.74;90.60
64652;HTU21D;51062;45.120;37.660;2023-11-19T01:32:38;7.75;90.64
64652;HTU21D;51062;45.120;37.660;2023-11-19T01:35:04;7.72;90.67
64652;HTU21D;51062;45.120;37.660;2023-11-19T01:37:30;7.72;90.69
64652;HTU21D;51062;45.120;37.660;2023-11-19T01:39:57;7.72;90.73
64652;HTU21D;51062;45.120;37.660;2023-11-19T01:42:23;7.73;90.76
64652;HTU21D;51062;45.120;37.660;2023-11-19T01:44:59;7.74;90.74
64652;HTU21D;51062;45.120;37.660;2023-11-19T01:47:26;7.73;90.76
64652;HTU21D;51062;45.120;37.660;2023-11-19T01:49:52;7.73;90.78
64652;HTU21D;51062;45.120;37.660;2023-11-19T01:52:19;7.73;90.79
64652;HTU21D;51062;45.120;37.660;2023-11-19T01:54:45;7.72;90.82
64652;HTU21D;51062;45.120;37.660;2023-11-19T01:57:12;7.71;90.82
64652;HTU21D;51062;45.120;37.660;2023-11-19T01:59:38;7.71;90.83
64652;HTU21D;51062;45.120;37.660;2023-11-19T02:02:05;7.71;90.84
64652;HTU21D;51062;45.120;37.660;2023-11-19T02:04:31;7.70;90.86
64652;HTU21D;51062;45.120;37.660;2023-11-19T02:06:57;7.68;90.90
64652;HTU21D;51062;45.120;37.660;2023-11-19T02:09:23;7.68;90.94
64652;HTU21D;51062;45.120;37.660;2023-11-19T02:11:49;7.67;90.96
64652;HTU21D;51062;45.120;37.660;2023-11-19T02:14:17;7.67;90.98
64652;HTU21D;51062;45.120;37.660;2023-11-19T02:16:43;7.65;91.00
64652;HTU21D;51062;45.120;37.660;2023-11-19T02:19:09;7.65;91.02
64652;HTU21D;51062;45.120;37.660;2023-11-19T02:21:37;7.64;91.03
64652;HTU21D;51062;45.120;37.660;2023-11-19T02:24:03;7.63;91.06
64652;HTU21D;51062;45.120;37.660;2023-11-19T02:26:34;7.65;91.05
64652;HTU21D;51062;45.120;37.660;2023-11-19T02:29:04;7.64;91.10
64652;HTU21D;51062;45.120;37.660;2023-11-19T02:31:30;7.64;91.11
64652;HTU21D;51062;45.120;37.660;2023-11-19T02:33:56;7.64;91.15
64652;HTU21D;51062;45.120;37.660;2023-11-19T02:36:21;7.63;91.18
64652;HTU21D;51062;45.120;37.660;2023-11-19T02:38:47;7.63;91.18
64652;HTU21D;51062;45.120;37.660;2023-11-19T02:41:13;7.62;91.18
64652;HTU21D;51062;45.120;37.660;2023-11-19T02:43:40;7.61;91.18
64652;HTU21D;51062;45.120;37.660;2023-11-19T02:46:05;7.59;91.21
64652;HTU21D;51062;45.120;37.660;2023-11-19T02:48:34;7.59;91.22
64652;HTU21D;51062;45.120;37.660;2023-11-19T02:51:05;7.58;91.23
64652;HTU21D;51062;45.120;37.660;2023-11-19T02:53:35;7.57;91.24
64652;HTU21D;51062;45.120;37.660;2023-11-19T02:56:00;7.57;91.24
64652;HTU21D;51062;45.120;37.660;2023-11-19T02:58:32;7.57;91.25
64652;HTU21D;51062;45.120;37.660;2023-11-19T03:00:58;7.55;91.26
64652;HTU21D;51062;45.120;37.660;2023-11-19T03:03:25;7.55;91.25
64652;HTU21D;51062;45.120;37.660;2023-11-19T03:05:56;7.55;91.25
64652;HTU21D;51062;45.120;37.660;2023-11-19T03:08:22;7.54;91.25
64652;HTU21D;51062;45.120;37.660;2023-11-19T03:10:48;7.54;91.24
64652;HTU21D;51062;45.120;37.660;2023-11-19T03:13:14;7.52;91.25
64652;HTU21D;51062;45.120;37.660;2023-11-19T03:15:40;7.52;91.29
64652;HTU21D;51062;45.120;37.660;2023-11-19T03:18:07;7.52;91.31
64652;HTU21D;51062;45.120;37.660;2023-11-19T03:20:34;7.52;91.32
64652;HTU21D;51062;45.120;37.660;2023-11-19T03:23:00;7.53;91.37
64652;HTU21D;51062;45.120;37.660;2023-11-19T03:25:27;7.54;91.42
64652;HTU21D;51062;45.120;37.660;2023-11-19T03:28:00;7.58;91.49
64652;HTU21D;51062;45.120;37.660;2023-11-19T03:30:27;7.61;91.51
64652;HTU21D;51062;45.120;37.660;2023-11-19T03:32:57;7.61;91.52
64652;HTU21D;51062;45.120;37.660;2023-11-19T03:35:23;7.63;91.50
64652;HTU21D;51062;45.120;37.660;2023-11-19T03:37:49;7.64;91.50
64652;HTU21D;51062;45.120;37.660;2023-11-19T03:40:16;7.64;91.47
64652;HTU21D;51062;45.120;37.660;2023-11-19T03:42:44;7.65;91.43
64652;HTU21D;51062;45.120;37.660;2023-11-19T03:45:10;7.65;91.43
64652;HTU21D;51062;45.120;37.660;2023-11-19T03:47:36;7.64;91.41
64652;HTU21D;51062;45.120;37.660;2023-11-19T03:50:02;7.65;91.41
64652;HTU21D;51062;45.120;37.660;2023-11-19T03:52:29;7.67;91.39
64652;HTU21D;51062;45.120;37.660;2023-11-19T03:54:55;7.68;91.37
64652;HTU21D;51062;45.120;37.660;2023-11-19T03:57:23;7.68;91.33
64652;HTU21D;51062;45.120;37.660;2023-11-19T03:59:49;7.68;91.30
64652;HTU21D;51062;45.120;37.660;2023-11-19T04:02:15;7.67;91.27
64652;HTU21D;51062;45.120;37.660;2023-11-19T04:04:41;7.67;91.24
64652;HTU21D;51062;45.120;37.660;2023-11-19T04:07:07;7.65;91.27
64652;HTU21D;51062;45.120;37.660;2023-11-19T04:09:33;7.67;91.28
64652;HTU21D;51062;45.120;37.660;2023-11-19T04:11:59;7.65;91.29
64652;HTU21D;51062;45.120;37.660;2023-11-19T04:14:26;7.63;91.28
64652;HTU21D;51062;45.120;37.660;2023-11-19T04:16:52;7.62;91.26
64652;HTU21D;51062;45.120;37.660;2023-11-19T04:19:21;7.62;91.27
64652;HTU21D;51062;45.120;37.660;2023-11-19T04:21:47;7.62;91.31
64652;HTU21D;51062;45.120;37.660;2023-11-19T04:24:13;7.60;91.29
64652;HTU21D;51062;45.120;37.660;2023-11-19T04:26:40;7.58;91.27
64652;HTU21D;51062;45.120;37.660;2023-11-19T04:29:08;7.57;91.29
64652;HTU21D;51062;45.120;37.660;2023-11-19T04:31:34;7.56;91.31
64652;HTU21D;51062;45.120;37.660;2023-11-19T04:34:00;7.56;91.34
64652;HTU21D;51062;45.120;37.660;2023-11-19T04:36:26;7.54;91.38
64652;HTU21D;51062;45.120;37.660;2023-11-19T04:38:52;7.55;91.39
64652;HTU21D;51062;45.120;37.660;2023-11-19T04:41:18;7.55;91.40
64652;HTU21D;51062;45.120;37.660;2023-11-19T04:43:44;7.54;91.40
64652;HTU21D;51062;45.120;37.660;2023-11-19T04:46:10;7.54;91.44
64652;HTU21D;51062;45.120;37.660;2023-11-19T04:48:36;7.54;91.47
64652;HTU21D;51062;45.120;37.660;2023-11-19T04:51:04;7.56;91.48
64652;HTU21D;51062;45.120;37.660;2023-11-19T04:53:30;7.55;91.50
64652;HTU21D;51062;45.120;37.660;2023-11-19T04:55:56;7.57;91.52
64652;HTU21D;51062;45.120;37.660;2023-11-19T04:58:22;7.58;91.52
64652;HTU21D;51062;45.120;37.660;2023-11-19T05:00:48;7.60;91.54
64652;HTU21D;51062;45.120;37.660;2023-11-19T05:03:13;7.62;91.56
64652;HTU21D;51062;45.120;37.660;2023-11-19T05:05:39;7.62;91.56
64652;HTU21D;51062;45.120;37.660;2023-11-19T05:08:05;7.62;91.54
64652;HTU21D;51062;45.120;37.660;2023-11-19T05:10:31;7.62;91.59
64652;HTU21D;51062;45.120;37.660;2023-11-19T05:12:57;7.63;91.60
64652;HTU21D;51062;45.120;37.660;2023-11-19T05:15:23;7.64;91.64
64652;HTU21D;51062;45.120;37.660;2023-11-19T05:17:49;7.65;91.63
64652;HTU21D;51062;45.120;37.660;2023-11-19T05:20:15;7.67;91.67
64652;HTU21D;51062;45.120;37.660;2023-11-19T05:22:42;7.69;91.68
64652;HTU21D;51062;45.120;37.660;2023-11-19T05:25:08;7.70;91.70
64652;HTU21D;51062;45.120;37.660;2023-11-19T05:27:37;7.73;91.73
64652;HTU21D;51062;45.120;37.660;2023-11-19T05:30:04;7.74;91.72
64652;HTU21D;51062;45.120;37.660;2023-11-19T05:32:49;7.78;91.72
64652;HTU21D;51062;45.120;37.660;2023-11-19T05:35:15;7.78;91.72
64652;HTU21D;51062;45.120;37.660;2023-11-19T05:37:41;7.82;91.72
64652;HTU21D;51062;45.120;37.660;2023-11-19T05:40:07;7.83;91.73
64652;HTU21D;51062;45.120;37.660;2023-11-19T05:42:42;7.86;91.74
64652;HTU21D;51062;45.120;37.660;2023-11-19T05:45:10;7.87;91.74
64652;HTU21D;51062;45.120;37.660;2023-11-19T05:47:37;7.88;91.72
64652;HTU21D;51062;45.120;37.660;2023-11-19T05:50:03;7.89;91.70
64652;HTU21D;51062;45.120;37.660;2023-11-19T05:52:31;7.88;91.69
64652;HTU21D;51062;45.120;37.660;2023-11-19T05:55:00;7.88;91.70
64652;HTU21D;51062;45.120;37.660;2023-11-19T05:57:27;7.86;91.67
64652;HTU21D;51062;45.120;37.660;2023-11-19T05:59:54;7.85;91.65
64652;HTU21D;51062;45.120;37.660;2023-11-19T06:02:20;7.83;91.60
64652;HTU21D;51062;45.120;37.660;2023-11-19T06:04:47;7.82;91.56
64652;HTU21D;51062;45.120;37.660;2023-11-19T06:07:13;7.79;91.53
64652;HTU21D;51062;45.120;37.660;2023-11-19T06:09:41;7.76;91.56
64652;HTU21D;51062;45.120;37.660;2023-11-19T06:12:07;7.70;91.57
64652;HTU21D;51062;45.120;37.660;2023-11-19T06:14:33;7.67;91.64
64652;HTU21D;51062;45.120;37.660;2023-11-19T06:16:59;7.63;91.68
64652;HTU21D;51062;45.120;37.660;2023-11-19T06:19:25;7.63;91.76
64652;HTU21D;51062;45.120;37.660;2023-11-19T06:21:51;7.64;91.82
64652;HTU21D;51062;45.120;37.660;2023-11-19T06:24:17;7.67;91.88
64652;HTU21D;51062;45.120;37.660;2023-11-19T06:26:43;7.68;91.92
64652;HTU21D;51062;45.120;37.660;2023-11-19T06:29:09;7.69;91.87
64652;HTU21D;51062;45.120;37.660;2023-11-19T06:31:34;7.65;91.87
64652;HTU21D;51062;45.120;37.660;2023-11-19T06:34:00;7.64;91.92
64652;HTU21D;51062;45.120;37.660;2023-11-19T06:36:26;7.65;92.04
64652;HTU21D;51062;45.120;37.660;2023-11-19T06:38:52;7.68;92.09
64652;HTU21D;51062;45.120;37.660;2023-11-19T06:41:18;7.71;92.12
64652;HTU21D;51062;45.120;37.660;2023-11-19T06:43:44;7.73;92.18
64652;HTU21D;51062;45.120;37.660;2023-11-19T06:46:17;7.75;92.20
64652;HTU21D;51062;45.120;37.660;2023-11-19T06:48:43;7.77;92.21
64652;HTU21D;51062;45.120;37.660;2023-11-19T06:51:10;7.79;92.25
64652;HTU21D;51062;45.120;37.660;2023-11-19T06:53:36;7.78;92.22
64652;HTU21D;51062;45.120;37.660;2023-11-19T06:56:02;7.79;92.23
64652;HTU21D;51062;45.120;37.660;2023-11-19T06:58:32;7.79;92.22
64652;HTU21D;51062;45.120;37.660;2023-11-19T07:01:00;7.77;92.19
64652;HTU21D;51062;45.120;37.660;2023-11-19T07:03:26;7.75;92.21
64652;HTU21D;51062;45.120;37.660;2023-11-19T07:05:52;7.75;92.32
64652;HTU21D;51062;45.120;37.660;2023-11-19T07:08:18;7.76;92.37
64652;HTU21D;51062;45.120;37.660;2023-11-19T07:10:44;7.75;92.36
64652;HTU21D;51062;45.120;37.660;2023-11-19T07:13:10;7.73;92.32
64652;HTU21D;51062;45.120;37.660;2023-11-19T07:15:35;7.71;92.41
64652;HTU21D;51062;45.120;37.660;2023-11-19T07:18:01;7.71;92.41
64652;HTU21D;51062;45.120;37.660;2023-11-19T07:20:27;7.71;92.46
64652;HTU21D;51062;45.120;37.660;2023-11-19T07:22:53;7.70;92.47
64652;HTU21D;51062;45.120;37.660;2023-11-19T07:25:20;7.74;93.82
64652;HTU21D;51062;45.120;37.660;2023-11-19T07:27:46;7.76;94.90
64652;HTU21D;51062;45.120;37.660;2023-11-19T07:30:13;7.77;95.33
64652;HTU21D;51062;45.120;37.660;2023-11-19T07:32:39;7.75;95.50
64652;HTU21D;51062;45.120;37.660;2023-11-19T07:35:05;7.73;95.60
64652;HTU21D;51062;45.120;37.660;2023-11-19T07:37:31;7.68;95.65
64652;HTU21D;51062;45.120;37.660;2023-11-19T07:39:57;7.63;95.80
64652;HTU21D;51062;45.120;37.660;2023-11-19T07:42:23;7.61;95.94
64652;HTU21D;51062;45.120;37.660;2023-11-19T07:44:49;7.62;96.05
64652;HTU21D;51062;45.120;37.660;2023-11-19T07:47:15;7.62;96.13
64652;HTU21D;51062;45.120;37.660;2023-11-19T07:49:41;7.61;96.14
64652;HTU21D;51062;45.120;37.660;2023-11-19T07:52:09;7.57;96.19
64652;HTU21D;51062;45.120;37.660;2023-11-19T07:54:35;7.55;96.20
64652;HTU21D;51062;45.120;37.660;2023-11-19T07:57:01;7.53;96.23
64652;HTU21D;51062;45.120;37.660;2023-11-19T07:59:27;7.50;96.27
64652;HTU21D;51062;45.120;37.660;2023-11-19T08:01:53;7.53;96.38
64652;HTU21D;51062;45.120;37.660;2023-11-19T08:04:19;7.54;96.46
64652;HTU21D;51062;45.120;37.660;2023-11-19T08:06:45;7.56;96.49
64652;HTU21D;51062;45.120;37.660;2023-11-19T08:09:11;7.56;96.50
64652;HTU21D;51062;45.120;37.660;2023-11-19T08:11:40;7.55;96.52
64652;HTU21D;51062;45.120;37.660;2023-11-19T08:14:06;7.55;96.54
64652;HTU21D;51062;45.120;37.660;2023-11-19T08:16:31;7.53;96.56
64652;HTU21D;51062;45.120;37.660;2023-11-19T08:18:57;7.49;96.56
64652;HTU21D;51062;45.120;37.660;2023-11-19T08:21:24;7.48;96.58
64652;HTU21D;51062;45.120;37.660;2023-11-19T08:23:49;7.47;96.57
64652;HTU21D;51062;45.120;37.660;2023-11-19T08:26:15;7.43;96.56
64652;HTU21D;51062;45.120;37.660;2023-11-19T08:28:41;7.41;96.58
64652;HTU21D;51062;45.120;37.660;2023-11-19T08:31:07;7.39;96.62
64652;HTU21D;51062;45.120;37.660;2023-11-19T08:33:33;7.39;96.65
64652;HTU21D;51062;45.120;37.660;2023-11-19T08:35:59;7.39;96.68
64652;HTU21D;51062;45.120;37.660;2023-11-19T08:38:26;7.40;96.71
64652;HTU21D;51062;45.120;37.660;2023-11-19T08:40:52;7.39;96.76
64652;HTU21D;51062;45.120;37.660;2023-11-19T08:43:18;7.39;96.78
64652;HTU21D;51062;45.120;37.660;2023-11-19T08:45:44;7.39;96.84
64652;HTU21D;51062;45.120;37.660;2023-11-19T08:48:10;7.43;96.91
64652;HTU21D;51062;45.120;37.660;2023-11-19T08:50:36;7.45;96.95
64652;HTU21D;51062;45.120;37.660;2023-11-19T08:53:01;7.46;109.78
64652;HTU21D;51062;45.120;37.660;2023-11-19T08:55:27;7.47;110.07
64652;HTU21D;51062;45.120;37.660;2023-11-19T08:57:53;7.44;111.63
64652;HTU21D;51062;45.120;37.660;2023-11-19T09:00:19;7.44;112.55
64652;HTU21D;51062;45.120;37.660;2023-11-19T09:02:46;7.44;112.42
64652;HTU21D;51062;45.120;37.660;2023-11-19T09:05:12;7.41;112.75
64652;HTU21D;51062;45.120;37.660;2023-11-19T09:07:38;7.41;113.21
64652;HTU21D;51062;45.120;37.660;2023-11-19T09:10:04;7.40;113.61
64652;HTU21D;51062;45.120;37.660;2023-11-19T09:12:31;7.39;113.79
64652;HTU21D;51062;45.120;37.660;2023-11-19T09:14:57;7.38;114.14
64652;HTU21D;51062;45.120;37.660;2023-11-19T09:17:23;7.40;114.61
64652;HTU21D;51062;45.120;37.660;2023-11-19T09:19:49;7.41;114.91
64652;HTU21D;51062;45.120;37.660;2023-11-19T09:22:15;7.41;115.28
64652;HTU21D;51062;45.120;37.660;2023-11-19T09:24:41;7.42;116.37
64652;HTU21D;51062;45.120;37.660;2023-11-19T09:27:10;7.40;117.92
64652;HTU21D;51062;45.120;37.660;2023-11-19T09:29:36;7.41;118.59
64652;HTU21D;51062;45.120;37.660;2023-11-19T09:32:02;7.42;118.99
64652;HTU21D;51062;45.120;37.660;2023-11-19T09:34:27;7.45;118.99
64652;HTU21D;51062;45.120;37.660;2023-11-19T09:36:53;7.47;118.99
64652;HTU21D;51062;45.120;37.660;2023-11-19T09:39:19;7.49;118.99
64652;HTU21D;51062;45.120;37.660;2023-11-19T09:41:47;7.52;118.99
64652;HTU21D;51062;45.120;37.660;2023-11-19T09:44:13;7.52;118.99
64652;HTU21D;51062;45.120;37.660;2023-11-19T09:46:41;7.55;118.99
64652;HTU21D;51062;45.120;37.660;2023-11-19T09:49:08;7.57;118.99
64652;HTU21D;51062;45.120;37.660;2023-11-19T09:51:35;7.59;118.99
64652;HTU21D;51062;45.120;37.660;2023-11-19T09:54:01;7.59;118.99
64652;HTU21D;51062;45.120;37.660;2023-11-19T09:56:28;7.58;118.99
64652;HTU21D;51062;45.120;37.660;2023-11-19T09:58:55;7.56;118.99
64652;HTU21D;51062;45.120;37.660;2023-11-19T10:01:21;7.57;118.99
64652;HTU21D;51062;45.120;37.660;2023-11-19T10:03:47;7.57;118.99
64652;HTU21D;51062;45.120;37.660;2023-11-19T10:06:13;7.57;118.99
64652;HTU21D;51062;45.120;37.660;2023-11-19T10:08:40;7.56;118.99
64652;HTU21D;51062;45.120;37.660;2023-11-19T10:11:07;7.58;118.99
64652;HTU21D;51062;45.120;37.660;2023-11-19T10:13:36;7.57;118.99
64652;HTU21D;51062;45.120;37.660;2023-11-19T10:16:14;7.57;118.99
64652;HTU21D;51062;45.120;37.660;2023-11-19T10:18:46;7.58;118.99
64652;HTU21D;51062;45.120;37.660;2023-11-19T10:21:13;7.58;118.99
64652;HTU21D;51062;45.120;37.660;2023-11-19T10:26:18;7.62;118.99
64652;HTU21D;51062;45.120;37.660;2023-11-19T10:28:45;7.62;118.99
64652;HTU21D;51062;45.120;37.660;2023-11-19T10:31:15;7.65;118.99
64652;HTU21D;51062;45.120;37.660;2023-11-19T10:33:42;7.71;118.99
64652;HTU21D;51062;45.120;37.660;2023-11-19T10:36:10;7.70;118.99
64652;HTU21D;51062;45.120;37.660;2023-11-19T10:38:38;7.70;118.99
64652;HTU21D;51062;45.120;37.660;2023-11-19T10:41:04;7.73;118.99
64652;HTU21D;51062;45.120;37.660;2023-11-19T10:43:31;7.74;118.99
64652;HTU21D;51062;45.120;37.660;2023-11-19T10:46:10;7.75;118.99
64652;HTU21D;51062;45.120;37.660;2023-11-19T10:48:36;7.79;118.99
64652;HTU21D;51062;45.120;37.660;2023-11-19T10:51:02;7.84;118.99
64652;HTU21D;51062;45.120;37.660;2023-11-19T10:53:31;7.87;118.99
64652;HTU21D;51062;45.120;37.660;2023-11-19T10:55:59;7.91;118.99
64652;HTU21D;51062;45.120;37.660;2023-11-19T10:58:25;7.98;118.99
64652;HTU21D;51062;45.120;37.660;2023-11-19T11:00:54;8.01;118.99
64652;HTU21D;51062;45.120;37.660;2023-11-19T11:03:20;8.05;118.99
64652;HTU21D;51062;45.120;37.660;2023-11-19T11:05:48;8.09;118.99
64652;HTU21D;51062;45.120;37.660;2023-11-19T11:08:14;8.13;118.99
64652;HTU21D;51062;45.120;37.660;2023-11-19T11:10:44;8.20;118.99
64652;HTU21D;51062;45.120;37.660;2023-11-19T11:13:11;8.26;118.99
64652;HTU21D;51062;45.120;37.660;2023-11-19T11:15:39;8.33;118.99
64652;HTU21D;51062;45.120;37.660;2023-11-19T11:18:08;8.38;118.99
64652;HTU21D;51062;45.120;37.660;2023-11-19T11:20:34;8.43;118.99
64652;HTU21D;51062;45.120;37.660;2023-11-19T11:26:09;8.46;118.99
64652;HTU21D;51062;45.120;37.660;2023-11-19T11:28:48;8.51;118.99
64652;HTU21D;51062;45.120;37.660;2023-11-19T11:31:31;8.57;118.99
64652;HTU21D;51062;45.120;37.660;2023-11-19T11:39:29;8.68;118.99
64652;HTU21D;51062;45.120;37.660;2023-11-19T11:45:06;8.70;118.99
64652;HTU21D;51062;45.120;37.660;2023-11-19T11:50:18;8.63;118.99
64652;HTU21D;51062;45.120;37.660;2023-11-19T11:55:26;8.59;118.99
64652;HTU21D;51062;45.120;37.660;2023-11-19T11:57:56;8.59;118.99
64652;HTU21D;51062;45.120;37.660;2023-11-19T12:00:31;8.60;118.99
64652;HTU21D;51062;45.120;37.660;2023-11-19T12:03:01;8.66;118.99
64652;HTU21D;51062;45.120;37.660;2023-11-19T12:05:27;8.70;118.99
64652;HTU21D;51062;45.120;37.660;2023-11-19T12:10:24;8.76;118.99
64652;HTU21D;51062;45.120;37.660;2023-11-19T12:12:53;8.77;118.99
64652;HTU21D;51062;45.120;37.660;2023-11-19T12:15:19;8.76;118.99
64652;HTU21D;51062;45.120;37.660;2023-11-19T12:17:50;8.79;118.99
64652;HTU21D;51062;45.120;37.660;2023-11-19T12:20:17;8.81;118.99
64652;HTU21D;51062;45.120;37.660;2023-11-19T12:22:44;8.85;118.99
64652;HTU21D;51062;45.120;37.660;2023-11-19T12:25:10;8.88;118.99
64652;HTU21D;51062;45.120;37.660;2023-11-19T12:27:41;8.91;118.99
64652;HTU21D;51062;45.120;37.660;2023-11-19T12:30:08;8.94;118.99
64652;HTU21D;51062;45.120;37.660;2023-11-19T12:32:40;8.96;118.99
64652;HTU21D;51062;45.120;37.660;2023-11-19T12:35:07;9.00;118.99
64652;HTU21D;51062;45.120;37.660;2023-11-19T12:37:47;9.04;118.99
64652;HTU21D;51062;45.120;37.660;2023-11-19T12:40:22;9.03;118.99
64652;HTU21D;51062;45.120;37.660;2023-11-19T12:42:50;9.01;118.99
64652;HTU21D;51062;45.120;37.660;2023-11-19T12:45:17;8.98;118.99
64652;HTU21D;51062;45.120;37.660;2023-11-19T12:47:45;9.00;118.99
64652;HTU21D;51062;45.120;37.660;2023-11-19T12:50:16;9.01;118.99
64652;HTU21D;51062;45.120;37.660;2023-11-19T12:52:58;9.01;118.99
64652;HTU21D;51062;45.120;37.660;2023-11-19T12:55:29;9.02;118.99
64652;HTU21D;51062;45.120;37.660;2023-11-19T12:57:56;9.04;118.99
64652;HTU21D;51062;45.120;37.660;2023-11-19T13:00:24;9.04;118.99
64652;HTU21D;51062;45.120;37.660;2023-11-19T13:02:51;9.03;118.99
64652;HTU21D;51062;45.120;37.660;2023-11-19T13:07:49;9.05;118.99
64652;HTU21D;51062;45.120;37.660;2023-11-19T13:10:16;9.06;118.99
64652;HTU21D;51062;45.120;37.660;2023-11-19T13:12:41;9.12;118.99
64652;HTU21D;51062;45.120;37.660;2023-11-19T13:15:22;9.16;118.99
64652;HTU21D;51062;45.120;37.660;2023-11-19T13:17:48;9.21;118.99
64652;HTU21D;51062;45.120;37.660;2023-11-19T13:20:14;9.24;118.99
64652;HTU21D;51062;45.120;37.660;2023-11-19T13:23:00;9.20;118.99
64652;HTU21D;51062;45.120;37.660;2023-11-19T13:25:27;9.18;118.99
64652;HTU21D;51062;45.120;37.660;2023-11-19T13:27:54;9.15;118.99
64652;HTU21D;51062;45.120;37.660;2023-11-19T13:30:21;9.12;118.99
64652;HTU21D;51062;45.120;37.660;2023-11-19T13:32:51;9.11;118.99
64652;HTU21D;51062;45.120;37.660;2023-11-19T13:35:18;9.09;118.99
64652;HTU21D;51062;45.120;37.660;2023-11-19T13:37:45;9.09;118.99
64652;HTU21D;51062;45.120;37.660;2023-11-19T13:40:13;9.07;118.99
64652;HTU21D;51062;45.120;37.660;2023-11-19T13:42:42;9.07;118.99
64652;HTU21D;51062;45.120;37.660;2023-11-19T13:45:09;9.08;118.99
64652;HTU21D;51062;45.120;37.660;2023-11-19T13:47:42;9.08;118.99
64652;HTU21D;51062;45.120;37.660;2023-11-19T13:50:13;9.09;118.99
64652;HTU21D;51062;45.120;37.660;2023-11-19T13:52:42;9.08;118.99
64652;HTU21D;51062;45.120;37.660;2023-11-19T13:55:10;9.09;118.99
64652;HTU21D;51062;45.120;37.660;2023-11-19T13:57:37;9.10;118.99
64652;HTU21D;51062;45.120;37.660;2023-11-19T14:00:05;9.09;118.99
64652;HTU21D;51062;45.120;37.660;2023-11-19T14:02:42;9.10;118.99
64652;HTU21D;51062;45.120;37.660;2023-11-19T14:05:09;9.09;118.99
64652;HTU21D;51062;45.120;37.660;2023-11-19T14:07:39;9.10;118.99
64652;HTU21D;51062;45.120;37.660;2023-11-19T14:10:06;9.10;118.99
64652;HTU21D;51062;45.120;37.660;2023-11-19T14:12:35;9.11;118.99
64652;HTU21D;51062;45.120;37.660;2023-11-19T14:15:05;9.10;118.99
64652;HTU21D;51062;45.120;37.660;2023-11-19T14:17:32;9.12;118.99
64652;HTU21D;51062;45.120;37.660;2023-11-19T14:20:00;9.14;118.99
64652;HTU21D;51062;45.120;37.660;2023-11-19T14:22:26;9.16;118.99
64652;HTU21D;51062;45.120;37.660;2023-11-19T14:24:52;9.17;118.99
64652;HTU21D;51062;45.120;37.660;2023-11-19T14:27:19;9.18;118.99
64652;HTU21D;51062;45.120;37.660;2023-11-19T14:29:45;9.20;118.99
64652;HTU21D;51062;45.120;37.660;2023-11-19T14:32:11;9.21;118.99
64652;HTU21D;51062;45.120;37.660;2023-11-19T14:34:38;9.21;118.99
64652;HTU21D;51062;45.120;37.660;2023-11-19T14:37:04;9.23;118.99
64652;HTU21D;51062;45.120;37.660;2023-11-19T14:39:30;9.24;118.99
64652;HTU21D;51062;45.120;37.660;2023-11-19T14:41:59;9.25;118.99
64652;HTU21D;51062;45.120;37.660;2023-11-19T14:44:30;9.27;118.99
64652;HTU21D;51062;45.120;37.660;2023-11-19T14:46:56;9.29;118.99
64652;HTU21D;51062;45.120;37.660;2023-11-19T14:49:23;9.31;118.99
64652;HTU21D;51062;45.120;37.660;2023-11-19T14:51:50;9.33;118.99
64652;HTU21D;51062;45.120;37.660;2023-11-19T14:54:17;9.37;118.99
64652;HTU21D;51062;45.120;37.660;2023-11-19T14:56:43;9.42;118.99
64652;HTU21D;51062;45.120;37.660;2023-11-19T14:59:09;9.49;118.99
64652;HTU21D;51062;45.120;37.660;2023-11-19T15:01:35;9.47;118.99
64652;HTU21D;51062;45.120;37.660;2023-11-19T15:04:01;9.46;118.99
64652;HTU21D;51062;45.120;37.660;2023-11-19T15:06:27;9.45;118.99
64652;HTU21D;51062;45.120;37.660;2023-11-19T15:08:56;9.44;118.99
64652;HTU21D;51062;45.120;37.660;2023-11-19T15:11:22;9.40;118.99
64652;HTU21D;51062;45.120;37.660;2023-11-19T15:13:49;9.38;118.99
64652;HTU21D;51062;45.120;37.660;2023-11-19T15:16:15;9.37;118.99
64652;HTU21D;51062;45.120;37.660;2023-11-19T15:18:47;9.37;118.99
64652;HTU21D;51062;45.120;37.660;2023-11-19T15:21:13;9.37;118.99
64652;HTU21D;51062;45.120;37.660;2023-11-19T15:23:40;9.37;118.99
64652;HTU21D;51062;45.120;37.660;2023-11-19T15:26:06;9.35;118.99
64652;HTU21D;51062;45.120;37.660;2023-11-19T15:28:36;9.39;118.99
64652;HTU21D;51062;45.120;37.660;2023-11-19T15:31:02;9.45;118.99
64652;HTU21D;51062;45.120;37.660;2023-11-19T15:33:28;9.48;118.99
64652;HTU21D;51062;45.120;37.660;2023-11-19T15:35:55;9.47;118.99